Santaquin, UT

9:15 AM MST on February 10, 2016 (GMT -0700)
MesoWest | | Change Station
CLOSE
Current Station
Personal Weather Station
Location: Santaquin, UT
Elevation: 4899 ft
Nearby Weather Stations

Elev 4899 ft 39.99 °N, 111.78 °W | Updated 55 minutes ago

Fog
Fog
9.0 °F
Feels Like 9.0 °F
N
3.0
Wind Variable Wind from SSE
Gusts 4.0 mph

Today
High -- | Low -- °F
--% Chance of Precip.
Yesterday
High -- | Low -- °F
Precip. -- in
Pressure 30.45 in
Visibility 0.2 miles
Clouds Overcast 100 ft
Dew Point 6.0 °F
Humidity 90%
Rainfall in
Snow Depth Not available.
7:26 AM 5:56 PM
Waxing Crescent, 6% visible
METAR K36U 101555Z AUTO 00000KT M1/4SM FZFG OVC001 M12/M13 A3045 RMK AO2
Pressure 30.45 in
Visibility 0.2 miles
Clouds Overcast 100 ft
Dew Point 6.0 °F
Humidity 90%
Rainfall in
Snow Depth Not available.
7:26 AM 5:56 PM
Waxing Crescent, 6% visible
METAR K36U 101555Z AUTO 00000KT M1/4SM FZFG OVC001 M12/M13 A3045 RMK AO2

10-Day Weather Forecast

Almanac

Astronomy

Feb. 10, 2016 Rise Set
Actual Time
Civil Twilight
Nautical Twilight
Astronomical Twilight
Moon
Length of Visible Light
Length of Day
Tomorrow will be .
, % of the Moon is Illuminated

Today's Extremes

State Highs State Lows

Community

WunderPhotos

Upload Photos

1,891,864 photos uploaded!

WunderBlog® & News

Nearby

Air Quality

  Air Quality AQ Index Pollutant
Not available.

Snow Depth

Station Depth Elevation

Earthquake Activity

City Distance Mag. Time & Date
Minimum magnitude displayed is 2.5.

Coastal Water Temperatures

Place Temperature

Stations

Nearby Weather Stations

Station Location Temp. Windchill Dew Point Humidity Wind Precip. Elev Updated Type
                   

Watches & Warnings

There are currently no watches in effect.